Bloom City, Wisconsin
Current Conditions -  °F | °C
As of 3:15 AM on Friday 19 Dec 2014 (Local Time) from KC35 Reporting Station
Overcast Overcast  
Wind Chill: -8°   Ceiling: 1200
Heat Index: -4°   Visibility: 10mi
Dew Point: -7°   Wind: 6mph
Humidity: 85%   Direction: 250°WSW
Pressure: 30.27"   Gusts: NA
Location:  43.6121°N, 90.3998°W
Report Text: KC35 190915Z AUTO 25005KT 10SM OVC012 M04/M06 A3027 RMK AO2 T10441065
Loading
Personal Weather Stations






























Interactive Weather Map New forecast layout! Learn more

10-Day Weather Forecast

Advertisements
Track Severe Weather on mobile